Time;durP1;ratioP1;P1;durP2;ratioP2;P2;SDS_P1;SDS_P2;PMS_P1;PMS_P2;Temp;Humidity;BMP_temperature;BMP_pressure;BME280_temperature;BME280_humidity;BME280_pressure;Samples;Min_cycle;Max_cycle;Signal;HPM_P1;HPM_P2
2021/07/17 00:02:29;;;;;;;5.72;1.73;;;28.70;24.00;;;;;;21164991;28;20051;-73
2021/07/17 00:12:30;;;;;;;4.65;1.85;;;28.60;24.50;;;;;;21163910;28;20046;-71
2021/07/17 00:22:33;;;;;;;4.63;1.65;;;28.40;24.80;;;;;;21162420;28;20135;-74
2021/07/17 00:32:37;;;;;;;5.20;1.50;;;28.20;25.30;;;;;;21163430;28;20052;-68
2021/07/17 00:42:41;;;;;;;3.15;1.80;;;28.10;25.90;;;;;;21161479;28;20051;-72
2021/07/17 00:52:43;;;;;;;4.15;1.70;;;28.00;26.20;;;;;;21163139;28;20415;-73
2021/07/17 01:03:03;;;;;;;4.57;1.92;;;27.90;26.50;;;;;;21162138;28;20059;-68
2021/07/17 01:13:05;;;;;;;2.97;1.70;;;27.90;26.70;;;;;;21170865;28;20058;-68
2021/07/17 01:23:08;;;;;;;3.35;1.90;;;27.60;27.20;;;;;;21177637;28;20537;-71
2021/07/17 01:33:11;;;;;;;3.85;1.67;;;27.40;27.60;;;;;;21177429;28;20079;-72
2021/07/17 01:43:14;;;;;;;3.70;1.90;;;27.20;27.90;;;;;;21176426;28;20453;-72
2021/07/17 01:53:20;;;;;;;9.52;4.30;;;27.10;28.20;;;;;;21175709;28;20047;-67
2021/07/17 02:03:24;;;;;;;5.80;2.47;;;26.90;28.60;;;;;;21175416;28;20092;-73
2021/07/17 02:13:29;;;;;;;3.78;1.70;;;26.70;28.90;;;;;;21174770;28;20541;-72
2021/07/17 02:23:36;;;;;;;5.53;2.17;;;26.60;28.90;;;;;;21172715;28;20407;-70
2021/07/17 02:33:38;;;;;;;4.13;1.60;;;26.40;29.10;;;;;;21172822;28;20075;-73
2021/07/17 02:43:42;;;;;;;3.72;1.70;;;26.10;29.50;;;;;;21172203;28;20047;-72
2021/07/17 02:53:45;;;;;;;3.15;2.03;;;26.00;29.90;;;;;;21171273;28;20138;-70
2021/07/17 03:03:49;;;;;;;5.22;2.10;;;25.90;30.30;;;;;;21170633;28;20132;-69
2021/07/17 03:13:52;;;;;;;3.13;1.80;;;25.70;30.70;;;;;;21170489;28;20047;-72
2021/07/17 03:23:57;;;;;;;2.47;1.80;;;25.60;31.00;;;;;;21167967;28;20051;-71
2021/07/17 03:34:00;;;;;;;4.05;2.05;;;25.40;31.50;;;;;;21168949;28;20131;-71
2021/07/17 03:44:03;;;;;;;3.08;1.83;;;25.30;31.70;;;;;;21168443;28;20408;-72
2021/07/17 03:54:12;;;;;;;2.80;2.00;;;25.10;32.10;;;;;;21166833;28;20075;-67
2021/07/17 04:04:16;;;;;;;3.03;1.88;;;24.90;32.60;;;;;;21166033;28;20048;-71
2021/07/17 04:14:21;;;;;;;3.63;2.00;;;24.60;33.10;;;;;;21165126;28;20066;-65
2021/07/17 04:24:29;;;;;;;4.20;2.20;;;24.70;33.30;;;;;;21163523;28;20139;-72
2021/07/17 04:34:30;;;;;;;4.20;2.10;;;24.70;33.50;;;;;;21163188;28;20087;-67
2021/07/17 04:44:36;;;;;;;3.92;2.30;;;24.60;33.50;;;;;;21163553;28;20438;-67
2021/07/17 04:54:39;;;;;;;3.63;1.90;;;24.60;33.50;;;;;;21163496;28;20352;-68
2021/07/17 05:04:39;;;;;;;5.30;2.00;;;24.50;33.60;;;;;;21163969;28;20093;-69
2021/07/17 05:14:40;;;;;;;4.90;2.13;;;24.50;33.80;;;;;;21162982;28;20040;-67
2021/07/17 05:24:42;;;;;;;4.25;2.15;;;24.60;33.60;;;;;;21162684;28;20113;-68
2021/07/17 05:34:46;;;;;;;5.25;2.75;;;24.60;33.70;;;;;;21162287;28;20044;-69
2021/07/17 05:44:47;;;;;;;5.05;2.10;;;24.60;33.90;;;;;;21162419;28;20483;-67
2021/07/17 05:54:48;;;;;;;5.33;2.80;;;24.60;33.90;;;;;;21162122;27;20059;-67
2021/07/17 06:04:54;;;;;;;5.72;2.70;;;24.60;34.40;;;;;;21177038;28;20050;-72
2021/07/17 06:14:57;;;;;;;3.58;2.08;;;24.60;35.40;;;;;;21175214;28;20460;-72
2021/07/17 06:24:58;;;;;;;4.05;2.42;;;24.60;35.40;;;;;;21155672;28;20142;-71
2021/07/17 06:35:00;;;;;;;6.78;2.80;;;24.50;35.30;;;;;;21155114;28;20075;-71
2021/07/17 06:45:02;;;;;;;4.97;2.38;;;24.70;35.30;;;;;;21154437;28;20056;-72
2021/07/17 06:55:06;;;;;;;7.90;2.67;;;24.80;35.20;;;;;;21171897;28;20039;-66
2021/07/17 07:05:09;;;;;;;7.45;2.65;;;25.00;35.20;;;;;;21177263;28;20456;-67
2021/07/17 07:15:11;;;;;;;3.95;2.60;;;25.60;34.50;;;;;;21169911;28;20507;-69
2021/07/17 07:25:13;;;;;;;5.40;2.58;;;26.40;33.20;;;;;;21169792;28;20070;-73
2021/07/17 07:35:20;;;;;;;4.35;2.60;;;27.00;32.40;;;;;;21180574;28;20071;-71
2021/07/17 07:45:23;;;;;;;6.22;2.28;;;27.60;31.60;;;;;;21184423;28;20051;-72
2021/07/17 07:55:25;;;;;;;6.47;2.30;;;28.10;31.00;;;;;;21168688;28;20408;-68
2021/07/17 08:05:27;;;;;;;4.00;2.20;;;28.60;30.50;;;;;;21166729;28;20400;-69
2021/07/17 08:15:31;;;;;;;5.78;2.30;;;29.00;30.30;;;;;;21166274;28;20090;-72
2021/07/17 08:25:33;;;;;;;5.88;2.08;;;29.30;30.00;;;;;;21164160;28;20059;-72
2021/07/17 08:35:35;;;;;;;11.43;2.70;;;29.80;29.90;;;;;;21165238;28;20400;-66
2021/07/17 08:45:37;;;;;;;4.15;2.08;;;30.00;30.80;;;;;;21165755;28;20088;-68
2021/07/17 08:55:39;;;;;;;5.90;2.30;;;30.30;30.20;;;;;;21164405;28;20087;-73
2021/07/17 09:05:45;;;;;;;4.65;2.20;;;30.60;30.30;;;;;;21163492;28;20452;-71
2021/07/17 09:16:04;;;;;;;5.60;2.30;;;31.10;30.40;;;;;;21143518;28;20106;-71
2021/07/17 09:26:11;;;;;;;6.70;2.80;;;31.60;30.20;;;;;;21088281;28;20052;-71
2021/07/17 09:36:16;;;;;;;7.18;2.30;;;31.60;30.00;;;;;;21088576;28;20173;-71
2021/07/17 09:46:20;;;;;;;6.53;2.47;;;31.80;29.40;;;;;;21091432;28;20048;-72
2021/07/17 09:56:31;;;;;;;4.55;2.28;;;32.00;28.90;;;;;;21086750;28;20106;-72
2021/07/17 10:06:42;;;;;;;5.60;2.30;;;32.30;27.80;;;;;;21112524;28;20035;-73
2021/07/17 10:16:49;;;;;;;6.95;2.78;;;32.50;26.70;;;;;;21128933;28;20044;-69
2021/07/17 10:26:52;;;;;;;4.97;2.10;;;32.80;26.60;;;;;;21081438;28;20098;-72
2021/07/17 10:37:09;;;;;;;5.68;2.67;;;32.80;26.10;;;;;;21009770;28;20131;-73
2021/07/17 10:47:12;;;;;;;3.35;2.20;;;33.10;25.70;;;;;;20989259;28;20075;-77
2021/07/17 10:57:27;;;;;;;2.97;1.65;;;33.10;24.30;;;;;;21040064;28;20033;-68
2021/07/17 11:07:30;;;;;;;3.33;2.03;;;33.20;23.60;;;;;;21017688;28;20060;-76
2021/07/17 11:17:45;;;;;;;4.53;2.20;;;33.30;22.90;;;;;;21003875;28;20072;-76
2021/07/17 11:27:48;;;;;;;3.95;2.40;;;33.40;23.10;;;;;;21080699;28;20553;-77
2021/07/17 11:37:52;;;;;;;5.25;2.50;;;33.40;22.90;;;;;;21092006;28;20078;-68
2021/07/17 11:47:55;;;;;;;4.22;2.58;;;33.60;22.90;;;;;;21086192;28;20050;-72
2021/07/17 11:57:57;;;;;;;3.67;2.20;;;34.10;22.10;;;;;;21084049;28;20040;-76
2021/07/17 12:07:59;;;;;;;4.25;2.20;;;34.10;22.20;;;;;;21092303;28;20052;-68
2021/07/17 12:18:04;;;;;;;4.78;1.90;;;34.10;21.80;;;;;;21090601;28;20044;-69
2021/07/17 12:28:17;;;;;;;3.92;1.80;;;34.00;22.20;;;;;;21081661;28;20135;-68
2021/07/17 12:38:26;;;;;;;3.00;2.30;;;34.30;21.80;;;;;;21063344;28;20455;-68
2021/07/17 12:48:29;;;;;;;4.78;2.10;;;34.40;21.80;;;;;;21080507;28;20051;-71
2021/07/17 12:58:31;;;;;;;3.10;2.33;;;34.90;21.20;;;;;;21084458;28;20076;-69
2021/07/17 13:08:33;;;;;;;3.45;2.22;;;35.10;21.20;;;;;;21095012;28;20044;-74
2021/07/17 13:18:34;;;;;;;4.22;2.78;;;35.30;20.70;;;;;;21095128;28;20539;-75
2021/07/17 13:28:36;;;;;;;3.97;2.42;;;35.30;21.20;;;;;;21094225;28;20121;-67
2021/07/17 13:38:38;;;;;;;3.88;2.60;;;35.60;20.40;;;;;;21093984;28;20044;-67
2021/07/17 13:48:39;;;;;;;5.95;3.75;;;35.50;20.70;;;;;;21093462;28;20056;-68
2021/07/17 13:58:41;;;;;;;5.18;3.10;;;35.80;20.40;;;;;;21092557;28;20109;-69
2021/07/17 14:08:44;;;;;;;4.55;2.42;;;36.00;20.20;;;;;;21095060;28;20134;-67
2021/07/17 14:18:45;;;;;;;4.28;2.20;;;36.00;20.40;;;;;;21106823;28;20094;-69
2021/07/17 14:28:47;;;;;;;4.45;3.00;;;36.10;20.20;;;;;;21095429;28;20054;-74
2021/07/17 14:38:49;;;;;;;2.50;1.85;;;36.30;19.60;;;;;;21094190;28;20047;-70
2021/07/17 14:48:53;;;;;;;3.10;2.58;;;36.10;19.50;;;;;;21093346;28;20404;-75
2021/07/17 14:58:54;;;;;;;4.30;2.10;;;36.30;20.30;;;;;;21090107;28;20048;-75
2021/07/17 15:08:57;;;;;;;3.78;2.05;;;36.40;19.70;;;;;;21088192;28;20093;-74
2021/07/17 15:18:59;;;;;;;3.95;2.22;;;36.40;19.70;;;;;;21087670;28;20123;-70
2021/07/17 15:29:04;;;;;;;5.82;2.53;;;36.60;19.70;;;;;;21066386;28;20048;-68
2021/07/17 15:39:06;;;;;;;4.00;2.17;;;36.80;19.10;;;;;;21084606;28;20090;-70
2021/07/17 15:49:11;;;;;;;5.05;2.67;;;36.70;19.20;;;;;;21085983;28;20412;-70
2021/07/17 15:59:14;;;;;;;5.68;2.80;;;36.60;19.20;;;;;;21082643;28;20052;-68
2021/07/17 16:09:15;;;;;;;6.22;5.22;;;36.80;18.60;;;;;;21081883;28;20044;-65
2021/07/17 16:19:17;;;;;;;6.57;2.53;;;37.10;18.20;;;;;;21085340;28;20056;-77
2021/07/17 16:29:22;;;;;;;3.63;2.40;;;36.90;18.70;;;;;;21083471;28;20521;-70
2021/07/17 16:39:26;;;;;;;2.85;2.13;;;36.60;18.70;;;;;;21083651;28;20047;-68
2021/07/17 16:49:28;;;;;;;4.88;2.38;;;37.10;17.70;;;;;;21082582;28;20470;-77
2021/07/17 16:59:30;;;;;;;3.97;2.20;;;36.70;18.20;;;;;;21079994;28;20055;-77
2021/07/17 17:09:32;;;;;;;4.53;2.22;;;36.70;18.20;;;;;;21078873;28;20052;-71
2021/07/17 17:19:34;;;;;;;4.38;2.72;;;36.50;18.30;;;;;;21077881;28;20562;-69
2021/07/17 17:29:36;;;;;;;3.90;2.50;;;36.40;18.30;;;;;;21077554;28;20056;-73
2021/07/17 17:39:38;;;;;;;5.50;2.92;;;36.30;19.00;;;;;;21078018;28;20048;-71
2021/07/17 17:49:39;;;;;;;4.80;2.75;;;36.30;18.50;;;;;;21076854;28;20074;-69
2021/07/17 17:59:46;;;;;;;5.32;2.42;;;36.00;18.60;;;;;;21082510;28;20122;-73
2021/07/17 18:09:47;;;;;;;5.53;2.60;;;35.80;18.90;;;;;;21094308;28;20058;-74
2021/07/17 18:19:49;;;;;;;5.40;3.05;;;35.80;18.80;;;;;;21094058;28;20126;-75
2021/07/17 18:29:50;;;;;;;6.90;2.90;;;35.70;19.00;;;;;;21132477;28;20044;-74
2021/07/17 18:39:52;;;;;;;7.28;3.70;;;35.60;19.10;;;;;;21096527;28;20052;-73
2021/07/17 18:49:54;;;;;;;9.13;4.43;;;35.40;19.60;;;;;;21092680;28;20048;-75
2021/07/17 18:59:56;;;;;;;7.18;4.43;;;35.20;20.20;;;;;;21090054;28;20466;-74
2021/07/17 19:09:57;;;;;;;5.05;2.60;;;35.10;20.60;;;;;;21067398;28;20048;-68
2021/07/17 19:20:00;;;;;;;6.53;3.20;;;34.90;20.00;;;;;;21084688;28;20131;-69
2021/07/17 19:30:02;;;;;;;5.03;2.55;;;34.60;19.90;;;;;;21084096;28;20067;-69
2021/07/17 19:40:07;;;;;;;4.68;3.10;;;34.30;20.30;;;;;;21065348;28;20052;-68
2021/07/17 19:50:09;;;;;;;8.23;3.53;;;34.00;20.80;;;;;;21082579;28;20056;-65
2021/07/17 20:00:16;;;;;;;6.03;3.33;;;33.80;21.20;;;;;;21082161;28;20424;-67
2021/07/17 20:10:19;;;;;;;3.67;2.90;;;33.50;21.70;;;;;;21085871;28;20044;-63
2021/07/17 20:20:21;;;;;;;9.18;5.85;;;33.20;21.40;;;;;;21080127;28;20121;-70
2021/07/17 20:30:23;;;;;;;6.32;2.95;;;33.00;21.70;;;;;;21081289;28;20044;-71
2021/07/17 20:40:24;;;;;;;11.45;3.78;;;33.00;21.00;;;;;;21080811;28;20112;-65
2021/07/17 20:50:28;;;;;;;5.03;3.13;;;33.00;20.80;;;;;;21062138;28;20125;-72
2021/07/17 21:00:30;;;;;;;6.00;2.83;;;32.90;20.70;;;;;;21080541;28;20130;-72
2021/07/17 21:10:32;;;;;;;4.18;2.90;;;32.80;20.50;;;;;;21062789;28;20048;-68
2021/07/17 21:20:34;;;;;;;5.40;2.78;;;32.70;20.60;;;;;;21060302;28;20075;-67
2021/07/17 21:30:36;;;;;;;6.50;3.10;;;32.60;20.50;;;;;;21087514;28;20484;-67
2021/07/17 21:40:38;;;;;;;4.65;3.13;;;32.30;20.70;;;;;;21094478;28;20048;-68
2021/07/17 21:50:39;;;;;;;4.72;2.20;;;32.10;20.90;;;;;;21093049;28;20501;-68
2021/07/17 22:00:55;;;;;;;2.90;1.95;;;32.00;20.40;;;;;;21093617;28;20075;-67
2021/07/17 22:11:06;;;;;;;4.15;1.77;;;31.80;20.20;;;;;;21093073;28;20097;-64
2021/07/17 22:21:12;;;;;;;3.30;1.60;;;31.60;20.10;;;;;;21090913;28;20413;-68
2021/07/17 22:31:14;;;;;;;4.60;1.85;;;31.30;20.50;;;;;;21090367;28;20403;-69
2021/07/17 22:41:15;;;;;;;4.60;2.40;;;31.10;21.00;;;;;;21088341;28;20051;-70
2021/07/17 22:51:17;;;;;;;4.95;1.92;;;31.00;21.40;;;;;;21091098;28;20044;-68
2021/07/17 23:01:18;;;;;;;2.42;1.83;;;30.90;21.30;;;;;;21088778;28;20454;-70
2021/07/17 23:11:20;;;;;;;6.85;2.90;;;30.90;21.30;;;;;;21086298;28;20047;-67
2021/07/17 23:21:21;;;;;;;4.45;2.08;;;30.70;21.90;;;;;;21085293;28;20192;-65
2021/07/17 23:31:23;;;;;;;5.38;2.03;;;30.60;22.90;;;;;;21084818;28;20048;-64
2021/07/17 23:41:24;;;;;;;6.53;2.10;;;30.40;24.00;;;;;;21084876;28;20400;-64
2021/07/17 23:51:25;;;;;;;5.82;2.33;;;30.30;25.10;;;;;;21082411;28;20120;-67
